Avondale, Maryland
Current Conditions -  °F | °C
As of 3:30 AM on Saturday 20 Dec 2014 (Local Time) from KCGS Reporting Station
Clear Clear  
Wind Chill: -3°   Ceiling: Unl
Heat Index: -3°   Visibility: 10mi
Dew Point: -4°   Wind: 3mph
Humidity: 93%   Direction: 340°NNW
Pressure: 30.26"   Gusts: NA
Location:  38.9677°N, 76.9584°W
Report Text: KCGS 200830Z AUTO 34003KT 10SM CLR M03/M04 A3026 RMK AO1
Loading
Personal Weather Stations






























Interactive Weather Map New forecast layout! Learn more

10-Day Weather Forecast

Advertisements
Track Severe Weather on mobile